Time;durP1;ratioP1;P1;durP2;ratioP2;P2;SDS_P1;SDS_P2;PMS_P1;PMS_P2;Temp;Humidity;BMP_temperature;BMP_pressure;BME280_temperature;BME280_humidity;BME280_pressure;Samples;Min_cycle;Max_cycle;Signal;HPM_P1;HPM_P2
2021/06/27 00:00:28;;;;;;;8.37;7.60;;;20.20;75.50;;;;;;5056472;28;20955;-45
2021/06/27 00:02:55;;;;;;;8.20;7.40;;;20.20;75.70;;;;;;5058437;28;20466;-44
2021/06/27 00:05:24;;;;;;;10.30;8.60;;;20.10;75.80;;;;;;5061830;28;20455;-44
2021/06/27 00:07:52;;;;;;;8.30;7.50;;;20.10;75.90;;;;;;5055984;28;21067;-43
2021/06/27 00:10:26;;;;;;;8.17;7.37;;;20.10;76.00;;;;;;5060670;28;20463;-44
2021/06/27 00:12:54;;;;;;;8.63;7.80;;;20.10;76.10;;;;;;5056996;28;20469;-44
2021/06/27 00:15:39;;;;;;;8.60;7.80;;;20.10;76.30;;;;;;5061326;28;20561;-45
2021/06/27 00:18:08;;;;;;;9.57;8.67;;;20.10;76.40;;;;;;5064866;28;20485;-44
2021/06/27 00:20:38;;;;;;;9.13;8.07;;;20.00;76.50;;;;;;5056770;28;20484;-45
2021/06/27 00:23:06;;;;;;;8.67;7.43;;;20.00;76.60;;;;;;5056884;28;20450;-42
2021/06/27 00:25:33;;;;;;;9.30;8.40;;;20.00;76.70;;;;;;5058397;28;20458;-42
2021/06/27 00:28:00;;;;;;;7.80;7.10;;;20.00;76.70;;;;;;5051231;28;20470;-42
2021/06/27 00:30:28;;;;;;;10.97;9.03;;;20.00;76.80;;;;;;5056277;28;21479;-42
2021/06/27 00:32:56;;;;;;;12.70;8.50;;;20.00;76.90;;;;;;5056429;28;20516;-41
2021/06/27 00:35:24;;;;;;;9.97;8.80;;;19.90;77.00;;;;;;5060725;28;20455;-41
2021/06/27 00:37:51;;;;;;;8.40;7.60;;;19.90;77.00;;;;;;5089588;28;20842;-42
2021/06/27 00:40:21;;;;;;;12.23;8.03;;;19.90;77.10;;;;;;5060585;28;20456;-42
2021/06/27 00:42:51;;;;;;;8.37;7.57;;;19.90;77.10;;;;;;5055508;28;20533;-42
2021/06/27 00:45:20;;;;;;;9.27;8.37;;;19.90;77.20;;;;;;5057384;28;20450;-42
2021/06/27 00:47:47;;;;;;;8.87;8.00;;;19.80;77.30;;;;;;5056701;28;20465;-42
2021/06/27 00:50:18;;;;;;;8.93;8.03;;;19.80;77.50;;;;;;5057859;28;20462;-42
2021/06/27 00:52:46;;;;;;;9.73;8.77;;;19.80;77.50;;;;;;5058545;28;20515;-42
2021/06/27 00:55:16;;;;;;;8.70;7.80;;;19.80;77.60;;;;;;5057305;28;20844;-42
2021/06/27 00:57:45;;;;;;;9.73;8.57;;;19.80;77.60;;;;;;5060578;28;20512;-41
2021/06/27 01:00:24;;;;;;;10.43;8.67;;;19.70;77.70;;;;;;5062990;28;20462;-42
2021/06/27 01:02:52;;;;;;;8.87;7.97;;;19.70;77.80;;;;;;5064396;28;20452;-42
2021/06/27 01:05:25;;;;;;;13.53;8.93;;;19.70;77.80;;;;;;5062948;28;20462;-41
2021/06/27 01:07:55;;;;;;;9.80;8.80;;;19.70;77.80;;;;;;5065202;28;20542;-45
2021/06/27 01:10:22;;;;;;;10.23;8.50;;;19.70;77.80;;;;;;5069196;28;20477;-41
2021/06/27 01:12:50;;;;;;;8.97;8.13;;;19.70;77.80;;;;;;5053754;28;20473;-41
2021/06/27 01:15:17;;;;;;;8.97;8.10;;;19.70;77.70;;;;;;5061977;28;20866;-41
2021/06/27 01:17:49;;;;;;;9.43;7.97;;;19.70;77.80;;;;;;5064819;28;20773;-42
2021/06/27 01:20:24;;;;;;;8.80;7.60;;;19.70;77.90;;;;;;5064410;28;20454;-42
2021/06/27 01:22:52;;;;;;;10.13;8.80;;;19.70;77.90;;;;;;5090261;28;20451;-44
2021/06/27 01:25:22;;;;;;;9.63;8.70;;;19.70;77.90;;;;;;5063382;28;20825;-44
2021/06/27 01:27:49;;;;;;;9.33;8.23;;;19.60;77.70;;;;;;5064055;28;20876;-45
2021/06/27 01:30:17;;;;;;;8.83;7.97;;;19.60;77.80;;;;;;5058707;28;20457;-44
2021/06/27 01:32:47;;;;;;;10.33;9.33;;;19.60;77.80;;;;;;5067469;28;20462;-45
2021/06/27 01:35:17;;;;;;;10.53;8.80;;;19.60;77.80;;;;;;5062433;28;20970;-45
2021/06/27 01:37:46;;;;;;;9.70;8.70;;;19.60;77.80;;;;;;5057999;28;20486;-44
2021/06/27 01:40:15;;;;;;;10.77;8.63;;;19.60;78.00;;;;;;5066389;28;20457;-41
2021/06/27 01:42:42;;;;;;;10.70;8.77;;;19.60;78.10;;;;;;5063577;28;20454;-41
2021/06/27 01:45:16;;;;;;;8.83;7.47;;;19.60;78.20;;;;;;5062126;28;20454;-42
2021/06/27 01:47:43;;;;;;;9.20;8.10;;;19.60;78.30;;;;;;5057667;28;20455;-42
2021/06/27 01:50:11;;;;;;;10.57;9.37;;;19.60;78.30;;;;;;5069218;28;20465;-42
2021/06/27 01:52:38;;;;;;;10.17;8.07;;;19.60;78.30;;;;;;5061771;28;20818;-44
2021/06/27 01:55:06;;;;;;;9.30;8.40;;;19.60;78.30;;;;;;5059541;28;20465;-44
2021/06/27 01:57:34;;;;;;;11.80;10.40;;;19.60;78.40;;;;;;5055135;28;20573;-43
2021/06/27 02:00:02;;;;;;;9.27;8.30;;;19.60;78.50;;;;;;5063100;28;20453;-43
2021/06/27 02:02:29;;;;;;;9.27;8.27;;;19.60;78.50;;;;;;5088519;27;20458;-42
2021/06/27 02:04:56;;;;;;;9.73;8.73;;;19.60;78.60;;;;;;5043878;28;20464;-42
2021/06/27 02:07:23;;;;;;;9.23;8.07;;;19.60;78.40;;;;;;5059719;28;20458;-42
2021/06/27 02:09:49;;;;;;;9.53;8.53;;;19.60;78.50;;;;;;5059962;28;20476;-42
2021/06/27 02:12:16;;;;;;;8.93;7.97;;;19.60;78.40;;;;;;5061769;28;20456;-42
2021/06/27 02:14:43;;;;;;;9.47;8.33;;;19.60;78.50;;;;;;5058395;28;20450;-44
2021/06/27 02:17:10;;;;;;;10.50;8.63;;;19.60;78.40;;;;;;5065511;28;20449;-42
2021/06/27 02:19:37;;;;;;;9.27;8.37;;;19.60;78.50;;;;;;5061189;28;20479;-42
2021/06/27 02:22:05;;;;;;;10.13;7.90;;;19.60;78.60;;;;;;5062434;28;20454;-42
2021/06/27 02:24:32;;;;;;;9.03;8.23;;;19.60;78.70;;;;;;5080948;28;20823;-42
2021/06/27 02:27:00;;;;;;;9.37;8.40;;;19.60;78.70;;;;;;5059496;28;20807;-41
2021/06/27 02:29:27;;;;;;;11.67;8.30;;;19.60;78.80;;;;;;5063031;28;20453;-44
2021/06/27 02:31:54;;;;;;;11.07;8.63;;;19.60;78.90;;;;;;5061455;28;20826;-44
2021/06/27 02:34:21;;;;;;;9.97;8.97;;;19.60;78.90;;;;;;5059135;28;20925;-44
2021/06/27 02:36:48;;;;;;;11.83;10.00;;;19.60;79.00;;;;;;5060488;28;20956;-44
2021/06/27 02:39:15;;;;;;;9.73;8.70;;;19.60;79.00;;;;;;5061140;28;20491;-44
2021/06/27 02:41:42;;;;;;;9.77;8.87;;;19.60;79.00;;;;;;5056976;28;20466;-45
2021/06/27 02:44:08;;;;;;;9.90;8.90;;;19.60;79.10;;;;;;5057874;28;20457;-44
2021/06/27 02:46:35;;;;;;;8.93;8.03;;;19.60;79.10;;;;;;5066286;28;20453;-44
2021/06/27 02:49:02;;;;;;;11.60;9.20;;;19.60;79.20;;;;;;5086392;28;21182;-45
2021/06/27 02:51:29;;;;;;;9.60;8.60;;;19.60;79.20;;;;;;5060112;28;20465;-45
2021/06/27 02:53:56;;;;;;;10.70;8.83;;;19.60;79.20;;;;;;5063444;28;20474;-45
2021/06/27 02:56:23;;;;;;;9.20;8.00;;;19.60;79.20;;;;;;5062782;28;20469;-45
2021/06/27 02:58:50;;;;;;;9.70;8.63;;;19.60;79.10;;;;;;5063292;28;20482;-41
2021/06/27 03:01:17;;;;;;;14.00;9.80;;;19.60;79.10;;;;;;5057829;28;21437;-41
2021/06/27 03:03:46;;;;;;;9.23;8.27;;;19.60;79.00;;;;;;5061336;28;20458;-41
2021/06/27 03:06:14;;;;;;;11.50;9.73;;;19.60;78.80;;;;;;5058698;28;20442;-41
2021/06/27 03:08:41;;;;;;;10.07;8.77;;;19.60;78.80;;;;;;5058367;28;20450;-41
2021/06/27 03:11:09;;;;;;;9.00;8.10;;;19.60;79.00;;;;;;5089397;27;20845;-42
2021/06/27 03:13:38;;;;;;;10.97;8.60;;;19.60;79.00;;;;;;5058612;28;20450;-42
2021/06/27 03:16:06;;;;;;;9.80;8.30;;;19.60;78.90;;;;;;5066262;28;20496;-41
2021/06/27 03:18:35;;;;;;;9.70;8.73;;;19.60;78.80;;;;;;5057775;28;20481;-42
2021/06/27 03:21:02;;;;;;;10.30;8.80;;;19.60;78.80;;;;;;5057871;28;20456;-41
2021/06/27 03:23:30;;;;;;;10.80;8.77;;;19.60;78.80;;;;;;5061963;28;20832;-41
2021/06/27 03:25:57;;;;;;;9.50;8.60;;;19.60;78.80;;;;;;5062480;28;20461;-41
2021/06/27 03:28:24;;;;;;;9.40;8.30;;;19.60;78.80;;;;;;5059901;28;20955;-41
2021/06/27 03:30:50;;;;;;;10.20;9.20;;;19.60;78.80;;;;;;5058114;28;20458;-41
2021/06/27 03:33:17;;;;;;;10.40;9.30;;;19.60;78.70;;;;;;5062041;28;20531;-42
2021/06/27 03:35:44;;;;;;;10.23;9.20;;;19.60;78.70;;;;;;5087758;28;20463;-42
2021/06/27 03:38:18;;;;;;;9.90;8.90;;;19.60;78.70;;;;;;5062268;28;20485;-41
2021/06/27 03:40:45;;;;;;;10.10;8.70;;;19.60;78.70;;;;;;5063898;28;20455;-41
2021/06/27 03:43:12;;;;;;;8.90;7.87;;;19.60;78.80;;;;;;5058906;28;20811;-41
2021/06/27 03:45:38;;;;;;;10.80;8.40;;;19.60;78.80;;;;;;5053505;28;20451;-41
2021/06/27 03:48:06;;;;;;;8.80;7.90;;;19.60;78.90;;;;;;5060573;28;20761;-42
2021/06/27 03:50:34;;;;;;;11.90;9.30;;;19.50;79.00;;;;;;5057845;28;20462;-42
2021/06/27 03:53:02;;;;;;;10.27;8.77;;;19.50;79.00;;;;;;5058672;28;21007;-42
2021/06/27 03:55:29;;;;;;;10.73;9.00;;;19.50;79.10;;;;;;5058141;28;20480;-42
2021/06/27 03:57:56;;;;;;;10.10;8.50;;;19.60;78.90;;;;;;5056666;28;20994;-42
2021/06/27 04:00:23;;;;;;;8.60;7.73;;;19.60;79.00;;;;;;5057054;28;20488;-42
2021/06/27 04:02:50;;;;;;;12.10;10.00;;;19.50;79.10;;;;;;5057400;28;20455;-41
2021/06/27 04:05:17;;;;;;;10.70;8.60;;;19.50;79.20;;;;;;5055887;28;20458;-44
2021/06/27 04:07:44;;;;;;;13.40;9.40;;;19.50;79.30;;;;;;5060666;28;20490;-44
2021/06/27 04:10:11;;;;;;;9.13;8.17;;;19.50;79.20;;;;;;5057965;28;20856;-45
2021/06/27 04:12:38;;;;;;;9.67;8.70;;;19.50;79.30;;;;;;5057214;28;20461;-44
2021/06/27 04:15:06;;;;;;;11.87;9.00;;;19.50;79.30;;;;;;5057234;28;20476;-44
2021/06/27 04:17:33;;;;;;;9.60;8.70;;;19.50;79.30;;;;;;5056302;28;20473;-44
2021/06/27 04:20:00;;;;;;;9.00;8.10;;;19.50;79.20;;;;;;5058215;28;20508;-43
2021/06/27 04:22:27;;;;;;;10.30;7.47;;;19.60;79.10;;;;;;5056718;28;20490;-44
2021/06/27 04:24:53;;;;;;;10.00;8.80;;;19.60;79.10;;;;;;5059662;28;20789;-44
2021/06/27 04:27:20;;;;;;;10.37;9.27;;;19.60;78.90;;;;;;5057512;28;20459;-44
2021/06/27 04:29:47;;;;;;;10.50;9.40;;;19.70;78.70;;;;;;5056568;28;20829;-44
2021/06/27 04:32:14;;;;;;;9.53;8.53;;;19.70;78.10;;;;;;5047156;28;20449;-44
2021/06/27 04:34:41;;;;;;;8.67;7.77;;;19.70;77.80;;;;;;5056744;28;20461;-44
2021/06/27 04:37:07;;;;;;;9.47;8.57;;;19.70;77.50;;;;;;5088188;28;20462;-42
2021/06/27 04:39:34;;;;;;;9.60;8.70;;;19.80;77.10;;;;;;5086049;28;20528;-42
2021/06/27 04:42:01;;;;;;;11.13;9.20;;;19.80;77.00;;;;;;5057607;28;20458;-42
2021/06/27 04:44:28;;;;;;;8.77;7.87;;;19.80;76.80;;;;;;5062417;28;20966;-42
2021/06/27 04:46:55;;;;;;;9.10;8.03;;;19.90;76.40;;;;;;5058776;28;20473;-42
2021/06/27 04:49:22;;;;;;;9.07;7.90;;;19.90;76.40;;;;;;5058253;28;20481;-42
2021/06/27 04:51:48;;;;;;;10.00;9.00;;;19.90;76.20;;;;;;5089821;28;20458;-41
2021/06/27 04:54:16;;;;;;;9.33;8.43;;;20.00;76.40;;;;;;5062125;28;20470;-42
2021/06/27 04:56:43;;;;;;;10.33;8.83;;;20.00;76.40;;;;;;5086190;28;20449;-42
2021/06/27 04:59:10;;;;;;;8.23;7.40;;;20.00;76.50;;;;;;5057800;28;20486;-42
2021/06/27 05:01:36;;;;;;;9.50;8.50;;;20.00;76.70;;;;;;5056945;28;20458;-42
2021/06/27 05:04:03;;;;;;;9.87;8.80;;;20.00;76.60;;;;;;5053580;28;20462;-42
2021/06/27 05:06:30;;;;;;;9.80;8.23;;;20.10;76.20;;;;;;5060493;28;20464;-42
2021/06/27 05:08:57;;;;;;;9.70;8.63;;;20.10;75.70;;;;;;5058022;28;20836;-42
2021/06/27 05:11:24;;;;;;;9.77;8.87;;;20.20;74.60;;;;;;5061073;28;20476;-42
2021/06/27 05:13:50;;;;;;;10.70;8.30;;;20.30;74.20;;;;;;5055352;28;20466;-42
2021/06/27 05:16:17;;;;;;;11.27;8.50;;;20.40;73.20;;;;;;5055977;28;20465;-42
2021/06/27 05:18:44;;;;;;;12.00;8.10;;;20.50;72.70;;;;;;5087826;28;20490;-42
2021/06/27 05:21:11;;;;;;;8.50;7.70;;;20.60;72.30;;;;;;5057069;28;20986;-42
2021/06/27 05:23:38;;;;;;;11.87;8.37;;;20.60;72.00;;;;;;5063837;28;20455;-42
2021/06/27 05:26:04;;;;;;;10.47;8.13;;;20.70;71.70;;;;;;5055797;28;20468;-42
2021/06/27 05:28:31;;;;;;;8.50;7.63;;;20.70;71.90;;;;;;5057217;28;20465;-42
2021/06/27 05:30:58;;;;;;;9.50;8.13;;;20.70;71.60;;;;;;5053340;28;20467;-42
2021/06/27 05:33:25;;;;;;;10.27;7.60;;;20.70;71.70;;;;;;5057274;28;20973;-42
2021/06/27 05:35:51;;;;;;;9.00;8.10;;;20.70;71.70;;;;;;5061315;28;20462;-42
2021/06/27 05:38:18;;;;;;;10.07;8.97;;;20.70;71.80;;;;;;5060855;28;20845;-42
2021/06/27 05:40:45;;;;;;;10.13;8.47;;;20.70;71.40;;;;;;5058953;28;20985;-42
2021/06/27 05:43:12;;;;;;;10.33;7.97;;;20.70;71.60;;;;;;5059787;28;20458;-42
2021/06/27 05:45:38;;;;;;;9.50;8.50;;;20.60;71.60;;;;;;5057891;28;20557;-42
2021/06/27 05:48:06;;;;;;;9.40;8.23;;;20.70;71.40;;;;;;5056004;28;20449;-42
2021/06/27 05:50:33;;;;;;;9.70;7.77;;;20.70;71.10;;;;;;5060540;28;20821;-42
2021/06/27 05:53:00;;;;;;;8.43;7.63;;;20.70;71.20;;;;;;5059772;28;20462;-42
2021/06/27 05:55:27;;;;;;;7.70;6.90;;;20.80;70.90;;;;;;5059225;28;20457;-42
2021/06/27 05:57:54;;;;;;;7.57;6.77;;;20.90;70.70;;;;;;5062258;28;20463;-41
2021/06/27 06:00:21;;;;;;;9.67;8.40;;;21.00;70.10;;;;;;5060646;28;20961;-42
2021/06/27 06:02:47;;;;;;;9.60;8.47;;;21.10;69.60;;;;;;5059126;28;20485;-42
2021/06/27 06:05:14;;;;;;;8.60;7.77;;;21.20;69.60;;;;;;5051603;28;20460;-42
2021/06/27 06:07:41;;;;;;;8.47;7.50;;;21.30;69.10;;;;;;5062280;28;20473;-42
2021/06/27 06:10:08;;;;;;;8.10;7.13;;;21.30;69.10;;;;;;5063652;28;20462;-42
2021/06/27 06:12:35;;;;;;;8.53;7.70;;;21.50;68.40;;;;;;5060884;28;20457;-42
2021/06/27 06:15:03;;;;;;;7.90;7.03;;;21.60;68.30;;;;;;5063701;28;20870;-42
2021/06/27 06:17:30;;;;;;;8.20;7.40;;;21.70;67.60;;;;;;5063994;28;20462;-42
2021/06/27 06:19:56;;;;;;;8.30;7.50;;;21.70;67.50;;;;;;5064086;28;20501;-42
2021/06/27 06:22:23;;;;;;;8.83;7.47;;;21.80;67.10;;;;;;5061142;28;20456;-42
2021/06/27 06:24:54;;;;;;;8.30;7.20;;;21.90;66.90;;;;;;5059035;28;20445;-42
2021/06/27 06:27:21;;;;;;;7.93;7.20;;;21.90;67.20;;;;;;5061208;28;20469;-42
2021/06/27 06:29:47;;;;;;;9.37;7.10;;;22.00;67.30;;;;;;5056992;28;20466;-42
2021/06/27 06:32:14;;;;;;;7.90;7.10;;;22.00;67.30;;;;;;5059857;28;20477;-42
2021/06/27 06:34:41;;;;;;;8.33;7.53;;;22.00;67.20;;;;;;5059245;28;20584;-42
2021/06/27 06:37:08;;;;;;;9.97;8.97;;;22.00;67.00;;;;;;5059698;28;21057;-42
2021/06/27 06:39:35;;;;;;;9.23;7.83;;;22.00;66.90;;;;;;5063684;28;20502;-43
2021/06/27 06:42:02;;;;;;;9.57;8.73;;;22.00;67.30;;;;;;5060313;28;20454;-42
2021/06/27 06:44:28;;;;;;;9.30;8.40;;;22.00;67.50;;;;;;5068016;28;20453;-42
2021/06/27 06:46:55;;;;;;;9.50;8.60;;;22.00;67.60;;;;;;5060617;28;20525;-42
2021/06/27 06:49:22;;;;;;;10.03;7.80;;;22.00;67.30;;;;;;5061990;28;20860;-42
2021/06/27 06:51:49;;;;;;;9.27;8.37;;;22.00;67.50;;;;;;5062901;28;20454;-42
2021/06/27 06:54:15;;;;;;;9.43;8.00;;;22.00;67.80;;;;;;5059751;28;20462;-42
2021/06/27 06:56:42;;;;;;;8.93;7.87;;;22.10;67.50;;;;;;5059602;28;20469;-42
2021/06/27 06:59:09;;;;;;;9.03;8.07;;;22.20;67.00;;;;;;5090522;27;20557;-42
2021/06/27 07:01:40;;;;;;;9.70;8.77;;;22.30;66.80;;;;;;5082915;28;20461;-42
2021/06/27 07:04:07;;;;;;;8.73;7.93;;;22.40;66.80;;;;;;5063515;28;20900;-42
2021/06/27 07:06:33;;;;;;;10.30;8.00;;;22.60;66.80;;;;;;5061631;28;20456;-42
2021/06/27 07:09:00;;;;;;;8.73;7.90;;;22.70;66.00;;;;;;5058008;28;20495;-44
2021/06/27 07:11:27;;;;;;;9.83;7.73;;;22.80;65.60;;;;;;5063175;28;20460;-42
2021/06/27 07:13:54;;;;;;;9.67;8.73;;;22.80;65.30;;;;;;5065660;28;20493;-42
2021/06/27 07:16:20;;;;;;;9.50;8.10;;;22.80;65.10;;;;;;5055438;28;20850;-42
2021/06/27 07:18:47;;;;;;;8.97;8.07;;;22.90;65.40;;;;;;5060349;28;20491;-43
2021/06/27 07:21:15;;;;;;;9.13;8.23;;;22.90;65.20;;;;;;5056575;28;20465;-42
2021/06/27 07:23:42;;;;;;;8.63;7.83;;;22.90;65.00;;;;;;5054393;28;20457;-42
2021/06/27 07:26:09;;;;;;;9.90;7.90;;;22.90;65.40;;;;;;5057717;28;20449;-42
2021/06/27 07:28:35;;;;;;;8.40;7.60;;;23.00;65.50;;;;;;5056428;28;20459;-42
2021/06/27 07:31:02;;;;;;;8.97;8.10;;;23.00;65.40;;;;;;5058948;28;20468;-42
2021/06/27 07:33:29;;;;;;;9.37;8.47;;;23.20;66.40;;;;;;5054421;28;20455;-43
2021/06/27 07:35:56;;;;;;;10.10;8.27;;;23.30;65.20;;;;;;5060885;28;20475;-42
2021/06/27 07:38:23;;;;;;;10.10;8.53;;;23.40;64.30;;;;;;5060648;28;20898;-43
2021/06/27 07:40:50;;;;;;;9.00;8.10;;;23.40;64.10;;;;;;5058284;28;20814;-43
2021/06/27 07:43:17;;;;;;;9.00;8.10;;;23.40;63.80;;;;;;5057031;28;20966;-42
2021/06/27 07:45:44;;;;;;;9.13;8.03;;;23.40;64.50;;;;;;5059766;28;20966;-42
2021/06/27 07:48:12;;;;;;;9.20;8.10;;;23.50;64.80;;;;;;5057359;28;20473;-43
2021/06/27 07:50:43;;;;;;;9.30;8.43;;;23.60;64.10;;;;;;5054666;28;20454;-42
2021/06/27 07:53:10;;;;;;;9.97;7.60;;;23.70;64.70;;;;;;5055968;28;20488;-42
2021/06/27 07:55:37;;;;;;;9.60;8.70;;;23.80;63.80;;;;;;5053250;28;20464;-43
2021/06/27 07:58:04;;;;;;;10.60;8.87;;;24.00;63.40;;;;;;5052548;28;20467;-42
2021/06/27 08:00:31;;;;;;;9.00;7.80;;;24.20;62.70;;;;;;5058062;28;21037;-42
2021/06/27 08:03:00;;;;;;;8.83;8.03;;;24.40;62.40;;;;;;5057376;28;20446;-43
2021/06/27 08:05:26;;;;;;;8.33;7.57;;;24.50;62.80;;;;;;5057094;28;20540;-42
2021/06/27 08:07:53;;;;;;;9.00;8.10;;;24.50;62.80;;;;;;5056454;28;20464;-43
2021/06/27 08:10:26;;;;;;;8.47;7.77;;;24.60;62.10;;;;;;5055512;28;20466;-43
2021/06/27 08:12:53;;;;;;;10.00;9.00;;;24.70;62.20;;;;;;5055727;28;20450;-43
2021/06/27 08:15:20;;;;;;;9.10;8.20;;;24.80;62.00;;;;;;5087702;28;20917;-43
2021/06/27 08:17:49;;;;;;;10.00;9.00;;;25.00;61.30;;;;;;5063418;28;20974;-43
2021/06/27 08:20:18;;;;;;;7.83;7.13;;;25.20;60.40;;;;;;5087376;28;20478;-42
2021/06/27 08:22:45;;;;;;;9.63;8.63;;;25.30;60.40;;;;;;5055558;28;20460;-43
2021/06/27 08:25:12;;;;;;;9.23;8.30;;;25.40;60.80;;;;;;5055660;28;20453;-43
2021/06/27 08:27:39;;;;;;;9.77;8.43;;;25.60;59.50;;;;;;5059335;28;20457;-42
2021/06/27 08:30:09;;;;;;;9.80;8.23;;;25.70;59.90;;;;;;5055696;28;20456;-43
2021/06/27 08:32:37;;;;;;;8.90;8.00;;;25.80;59.40;;;;;;5057180;28;20468;-43
2021/06/27 08:35:05;;;;;;;8.17;7.47;;;25.90;60.10;;;;;;5055595;28;20513;-43
2021/06/27 08:37:31;;;;;;;10.73;9.50;;;26.00;59.20;;;;;;5055876;28;20489;-43
2021/06/27 08:39:58;;;;;;;8.60;7.80;;;26.10;59.40;;;;;;5055700;28;20838;-43
2021/06/27 08:42:25;;;;;;;11.20;8.20;;;26.30;59.10;;;;;;5055771;28;20469;-42
2021/06/27 08:44:53;;;;;;;9.17;8.30;;;26.40;58.30;;;;;;5056442;28;20499;-43
2021/06/27 08:47:20;;;;;;;8.17;7.47;;;26.50;57.80;;;;;;5055978;28;20828;-43
2021/06/27 08:49:49;;;;;;;9.43;8.13;;;26.60;57.90;;;;;;5057517;28;20822;-43
2021/06/27 08:52:20;;;;;;;7.90;7.23;;;26.80;57.90;;;;;;5056915;28;20557;-42
2021/06/27 08:54:49;;;;;;;13.03;8.57;;;26.90;57.10;;;;;;5057174;28;20465;-43
2021/06/27 08:57:17;;;;;;;8.90;8.10;;;27.00;58.20;;;;;;5059815;28;20467;-43
2021/06/27 08:59:45;;;;;;;8.10;7.30;;;27.10;57.30;;;;;;5055194;28;20492;-43
2021/06/27 09:02:12;;;;;;;9.70;8.17;;;27.20;57.40;;;;;;5057676;28;20448;-42
2021/06/27 09:04:43;;;;;;;9.13;8.33;;;27.30;56.10;;;;;;5056747;28;20433;-43
2021/06/27 09:07:31;;;;;;;8.10;7.20;;;27.40;55.80;;;;;;5061609;28;21133;-42
2021/06/27 09:10:16;;;;;;;8.60;7.80;;;27.30;55.90;;;;;;5059309;28;20824;-43
2021/06/27 09:12:58;;;;;;;8.67;7.97;;;27.30;56.30;;;;;;5054575;28;20460;-43
2021/06/27 09:15:50;;;;;;;9.33;8.00;;;27.30;56.60;;;;;;5057934;28;20540;-43
2021/06/27 09:18:16;;;;;;;8.63;7.83;;;27.30;55.90;;;;;;5060086;28;20501;-43
2021/06/27 09:20:47;;;;;;;10.13;8.20;;;27.30;56.60;;;;;;5091077;28;20511;-43
2021/06/27 09:23:15;;;;;;;8.90;8.00;;;27.30;57.60;;;;;;5086951;28;20544;-42
2021/06/27 09:25:44;;;;;;;9.10;8.20;;;27.30;56.60;;;;;;5061095;28;20441;-42
2021/06/27 09:28:20;;;;;;;9.37;8.57;;;27.30;56.70;;;;;;5066023;28;20441;-43
2021/06/27 09:30:55;;;;;;;8.90;8.10;;;27.30;56.30;;;;;;5063571;28;20725;-43
2021/06/27 09:33:27;;;;;;;9.43;8.53;;;27.30;56.60;;;;;;5063988;28;20949;-43
2021/06/27 09:36:03;;;;;;;9.70;8.90;;;27.30;57.00;;;;;;5060781;28;20441;-43
2021/06/27 09:38:41;;;;;;;9.20;8.30;;;27.30;56.90;;;;;;5088559;28;20569;-43
2021/06/27 09:41:18;;;;;;;9.17;8.37;;;27.40;56.70;;;;;;5060262;28;21468;-43
2021/06/27 09:43:50;;;;;;;7.70;7.00;;;27.50;56.50;;;;;;5058868;28;20429;-43
2021/06/27 09:46:17;;;;;;;8.60;7.80;;;27.80;56.10;;;;;;5060725;28;20553;-43
2021/06/27 09:48:55;;;;;;;8.13;7.43;;;27.90;56.50;;;;;;5057912;28;20444;-42
2021/06/27 09:51:26;;;;;;;8.80;8.03;;;28.00;55.90;;;;;;5058940;28;20459;-43
2021/06/27 09:53:54;;;;;;;8.97;8.10;;;28.10;54.80;;;;;;5060923;28;20540;-43
2021/06/27 09:56:24;;;;;;;8.37;7.57;;;28.30;53.80;;;;;;5061808;28;20477;-43
2021/06/27 09:58:59;;;;;;;10.23;8.07;;;28.40;54.00;;;;;;5057425;28;20210;-43
2021/06/27 10:01:27;;;;;;;8.00;7.30;;;28.40;53.70;;;;;;5064275;28;20447;-43
2021/06/27 10:03:56;;;;;;;9.83;8.40;;;28.50;53.70;;;;;;5060031;28;20203;-42
2021/06/27 10:06:29;;;;;;;9.30;8.40;;;28.40;53.10;;;;;;5056707;28;20806;-43
2021/06/27 10:09:15;;;;;;;10.10;8.40;;;28.20;53.70;;;;;;5058483;28;20438;-43
2021/06/27 10:11:57;;;;;;;8.00;7.40;;;28.20;54.40;;;;;;5073917;28;20223;-43
2021/06/27 10:14:32;;;;;;;8.20;6.53;;;28.30;54.40;;;;;;5060890;28;20461;-43
2021/06/27 10:17:02;;;;;;;8.80;7.97;;;28.40;54.50;;;;;;5061011;28;20654;-43
2021/06/27 10:19:31;;;;;;;9.00;8.20;;;28.40;53.20;;;;;;5058699;28;20227;-43
2021/06/27 10:22:01;;;;;;;7.83;7.13;;;28.40;53.40;;;;;;5058704;28;20449;-43
2021/06/27 10:24:28;;;;;;;8.87;8.17;;;28.30;54.10;;;;;;5058258;28;20457;-43
2021/06/27 10:26:55;;;;;;;9.00;8.30;;;28.30;54.10;;;;;;5058945;28;20199;-43
2021/06/27 10:29:23;;;;;;;9.53;7.83;;;28.30;53.70;;;;;;5056372;28;20215;-43
2021/06/27 10:31:52;;;;;;;8.40;7.57;;;28.30;53.20;;;;;;5063389;28;20442;-43
2021/06/27 10:34:19;;;;;;;7.93;7.23;;;28.20;53.50;;;;;;5060550;28;20446;-43
2021/06/27 10:36:50;;;;;;;8.40;7.50;;;28.20;54.80;;;;;;5060312;28;20199;-43
2021/06/27 10:39:19;;;;;;;8.30;7.60;;;28.20;54.50;;;;;;5058927;28;20650;-42
2021/06/27 10:42:02;;;;;;;9.10;8.30;;;28.20;54.10;;;;;;5061756;28;20211;-43
2021/06/27 10:44:38;;;;;;;8.47;7.77;;;28.30;54.80;;;;;;5088020;28;20442;-42
2021/06/27 10:47:06;;;;;;;7.77;7.13;;;28.30;54.30;;;;;;5059920;28;20453;-43
2021/06/27 10:49:33;;;;;;;8.17;7.40;;;28.30;54.30;;;;;;5092430;28;20771;-43
2021/06/27 10:52:09;;;;;;;7.83;7.13;;;28.30;52.20;;;;;;5056474;28;20692;-43
2021/06/27 10:54:38;;;;;;;7.27;6.40;;;28.30;52.00;;;;;;5061379;28;20460;-43
2021/06/27 10:57:07;;;;;;;7.30;6.60;;;28.30;51.60;;;;;;5084161;28;20214;-43
2021/06/27 10:59:46;;;;;;;7.10;6.50;;;28.30;51.80;;;;;;5058145;28;20226;-42
2021/06/27 11:02:23;;;;;;;7.13;6.50;;;28.20;53.20;;;;;;5061541;28;20199;-42
2021/06/27 11:04:52;;;;;;;6.67;6.03;;;28.10;53.20;;;;;;5086412;28;20199;-43
2021/06/27 11:07:39;;;;;;;5.40;5.00;;;28.20;52.40;;;;;;5058437;28;20458;-43
2021/06/27 11:10:19;;;;;;;4.70;4.30;;;28.20;50.30;;;;;;5059441;28;20991;-43
2021/06/27 11:12:59;;;;;;;5.77;5.37;;;28.20;50.00;;;;;;5061228;28;20223;-43
2021/06/27 11:15:26;;;;;;;5.57;5.17;;;28.10;50.30;;;;;;5059509;28;20216;-42
2021/06/27 11:17:55;;;;;;;5.60;5.20;;;28.20;49.90;;;;;;5059199;28;20223;-43
2021/06/27 11:20:24;;;;;;;5.67;5.13;;;28.20;49.20;;;;;;5058064;28;20234;-43
2021/06/27 11:22:55;;;;;;;5.37;4.97;;;28.20;49.60;;;;;;5057158;28;20464;-43
2021/06/27 11:25:40;;;;;;;5.67;5.10;;;28.20;49.90;;;;;;5058178;28;20495;-43
2021/06/27 11:28:20;;;;;;;5.50;5.00;;;28.30;49.10;;;;;;5057338;28;20199;-43
2021/06/27 11:31:26;;;;;;;5.70;5.23;;;28.30;49.50;;;;;;5061092;28;20207;-42
2021/06/27 11:34:27;;;;;;;4.50;4.10;;;28.30;49.80;;;;;;5055868;28;20810;-42
2021/06/27 11:36:56;;;;;;;4.87;4.57;;;28.20;48.30;;;;;;5064122;28;20203;-43
2021/06/27 11:39:48;;;;;;;5.57;5.10;;;28.20;48.40;;;;;;5056998;28;20786;-42
2021/06/27 11:42:27;;;;;;;4.97;4.57;;;28.20;49.00;;;;;;5058869;28;20442;-43
2021/06/27 11:45:06;;;;;;;6.50;4.67;;;28.20;48.10;;;;;;5056306;28;20449;-43
2021/06/27 11:47:55;;;;;;;4.90;4.50;;;28.20;47.40;;;;;;5059348;28;20442;-42
2021/06/27 11:50:25;;;;;;;4.67;4.27;;;28.20;48.00;;;;;;5058813;28;20962;-43
2021/06/27 11:53:00;;;;;;;4.17;3.87;;;28.20;47.30;;;;;;5058881;28;20468;-42
2021/06/27 11:55:39;;;;;;;4.30;3.80;;;28.20;46.40;;;;;;5083509;28;21289;-42
2021/06/27 11:58:18;;;;;;;3.90;3.60;;;28.10;45.90;;;;;;5057028;28;20209;-43
2021/06/27 12:00:49;;;;;;;6.77;3.30;;;28.10;46.10;;;;;;5086896;28;20495;-42
2021/06/27 12:03:23;;;;;;;4.10;3.70;;;28.10;46.40;;;;;;5060960;28;21084;-42
2021/06/27 12:05:57;;;;;;;3.93;3.60;;;28.00;46.00;;;;;;5087440;28;20946;-42
2021/06/27 12:08:25;;;;;;;4.77;4.37;;;27.90;46.40;;;;;;5083155;28;20468;-43
2021/06/27 12:10:56;;;;;;;4.97;4.57;;;27.90;46.80;;;;;;5057911;28;20449;-43
2021/06/27 12:13:25;;;;;;;4.57;4.20;;;27.90;47.30;;;;;;5058096;28;20445;-42
2021/06/27 12:15:55;;;;;;;4.40;4.10;;;27.90;47.20;;;;;;5058016;28;20506;-42
2021/06/27 12:18:26;;;;;;;4.83;4.43;;;28.10;47.00;;;;;;5056749;28;20889;-42
2021/06/27 12:21:07;;;;;;;7.17;5.00;;;28.10;47.60;;;;;;5055977;28;20483;-42
2021/06/27 12:23:36;;;;;;;5.03;4.20;;;28.20;47.30;;;;;;5054300;28;20462;-43
2021/06/27 12:26:05;;;;;;;4.60;4.20;;;28.30;47.40;;;;;;5056843;28;20443;-42
2021/06/27 12:28:40;;;;;;;4.53;4.10;;;28.30;47.00;;;;;;5057040;28;20451;-43
2021/06/27 12:31:07;;;;;;;4.57;4.27;;;28.40;47.10;;;;;;5054588;28;20456;-43
2021/06/27 12:33:40;;;;;;;4.87;4.47;;;28.30;47.40;;;;;;5056856;28;20227;-43
2021/06/27 12:36:16;;;;;;;4.93;4.53;;;28.30;47.60;;;;;;5059277;28;20210;-42
2021/06/27 12:38:49;;;;;;;4.97;4.57;;;28.40;47.70;;;;;;5063098;28;20930;-42
2021/06/27 12:41:28;;;;;;;4.80;4.50;;;28.50;47.30;;;;;;5054337;28;20216;-43
2021/06/27 12:44:05;;;;;;;7.33;5.07;;;28.50;47.90;;;;;;5057375;28;20205;-43
2021/06/27 12:46:47;;;;;;;4.50;4.10;;;28.50;46.60;;;;;;5085712;28;20203;-43
2021/06/27 12:49:23;;;;;;;5.40;4.87;;;28.50;47.40;;;;;;5062445;28;20606;-43
2021/06/27 12:51:56;;;;;;;4.90;4.50;;;28.50;46.90;;;;;;5060919;28;20934;-43
2021/06/27 12:54:30;;;;;;;4.57;4.17;;;28.60;47.30;;;;;;5063423;28;20249;-43
2021/06/27 12:57:17;;;;;;;4.90;4.40;;;28.60;47.20;;;;;;5091940;28;20209;-43